Time;durP1;ratioP1;P1;durP2;ratioP2;P2;SDS_P1;SDS_P2;PMS_P1;PMS_P2;Temp;Humidity;BMP_temperature;BMP_pressure;BME280_temperature;BME280_humidity;BME280_pressure;Samples;Min_cycle;Max_cycle;Signal;HPM_P1;HPM_P2
2021/06/18 00:00:01;;;;;;;5.28;0.70;;;;;;;;;;4908119;29;20074;-56
2021/06/18 00:02:26;;;;;;;4.95;1.92;;;;;;;;;;4906620;29;20075;-55
2021/06/18 00:04:52;;;;;;;8.60;1.08;;;;;;;;;;4907303;29;20130;-56
2021/06/18 00:07:18;;;;;;;4.32;0.80;;;;;;;;;;4907952;29;20127;-56
2021/06/18 00:09:44;;;;;;;9.48;1.02;;;;;;;;;;4889096;29;20032;-56
2021/06/18 00:12:10;;;;;;;3.60;0.55;;;;;;;;;;4907800;29;20113;-56
2021/06/18 00:14:36;;;;;;;3.83;0.60;;;;;;;;;;4907350;29;20060;-57
2021/06/18 00:17:02;;;;;;;5.85;1.00;;;;;;;;;;4908080;29;20051;-56
2021/06/18 00:19:28;;;;;;;2.75;0.45;;;;;;;;;;4907311;29;20067;-57
2021/06/18 00:21:54;;;;;;;4.90;0.60;;;;;;;;;;4891278;29;20537;-58
2021/06/18 00:24:20;;;;;;;4.70;0.80;;;;;;;;;;4906048;29;20068;-56
2021/06/18 00:26:45;;;;;;;6.55;0.77;;;;;;;;;;4908045;29;20836;-56
2021/06/18 00:29:11;;;;;;;4.05;0.80;;;;;;;;;;4907468;29;20040;-57
2021/06/18 00:31:37;;;;;;;6.88;0.95;;;;;;;;;;4890933;29;25304;-58
2021/06/18 00:34:03;;;;;;;5.78;0.90;;;;;;;;;;4908386;29;20038;-56
2021/06/18 00:36:29;;;;;;;7.60;1.20;;;;;;;;;;4906362;29;20042;-56
2021/06/18 00:38:55;;;;;;;4.45;0.80;;;;;;;;;;4908104;29;20044;-56
2021/06/18 00:41:21;;;;;;;5.22;0.70;;;;;;;;;;4906696;29;20577;-54
2021/06/18 00:43:51;;;;;;;4.95;0.70;;;;;;;;;;4904489;29;20052;-57
2021/06/18 00:46:17;;;;;;;5.95;0.85;;;;;;;;;;4907276;29;20466;-56
2021/06/18 00:48:43;;;;;;;4.80;0.70;;;;;;;;;;4906412;29;20036;-56
2021/06/18 00:51:08;;;;;;;3.85;0.70;;;;;;;;;;4905629;29;20052;-56
2021/06/18 00:53:35;;;;;;;3.10;0.90;;;;;;;;;;4907482;29;20043;-56
2021/06/18 00:56:00;;;;;;;5.70;0.90;;;;;;;;;;4908023;29;20516;-56
2021/06/18 00:58:27;;;;;;;5.68;0.80;;;;;;;;;;4907835;29;20119;-56
2021/06/18 01:00:53;;;;;;;3.00;0.70;;;;;;;;;;4906423;29;20044;-56
2021/06/18 01:03:19;;;;;;;3.90;0.80;;;;;;;;;;4906796;29;20074;-55
2021/06/18 01:05:45;;;;;;;5.97;0.70;;;;;;;;;;4907116;29;20051;-56
2021/06/18 01:08:21;;;;;;;6.78;0.80;;;;;;;;;;4906720;29;20036;-56
2021/06/18 01:11:07;;;;;;;7.82;0.98;;;;;;;;;;4904162;29;20088;-56
2021/06/18 01:13:42;;;;;;;7.25;1.15;;;;;;;;;;4904069;29;20052;-56
2021/06/18 01:16:11;;;;;;;7.20;1.00;;;;;;;;;;4904373;29;20055;-56
2021/06/18 01:18:42;;;;;;;7.00;1.10;;;;;;;;;;4905474;29;20099;-56
2021/06/18 01:21:28;;;;;;;8.27;0.90;;;;;;;;;;4904432;29;20071;-56
2021/06/18 01:24:12;;;;;;;3.80;0.70;;;;;;;;;;4904562;29;20051;-55
2021/06/18 01:26:53;;;;;;;5.70;1.10;;;;;;;;;;4905399;29;20393;-56
2021/06/18 01:29:20;;;;;;;6.15;1.00;;;;;;;;;;4905079;29;20106;-53
2021/06/18 01:31:47;;;;;;;3.30;1.10;;;;;;;;;;4906349;29;20056;-55
2021/06/18 01:34:15;;;;;;;3.70;0.95;;;;;;;;;;4906898;29;20111;-56
2021/06/18 01:36:43;;;;;;;8.23;1.00;;;;;;;;;;4905191;29;20044;-56
2021/06/18 01:39:09;;;;;;;6.30;0.90;;;;;;;;;;4905738;29;20103;-55
2021/06/18 01:41:35;;;;;;;5.80;0.90;;;;;;;;;;4906128;29;20075;-54
2021/06/18 01:44:01;;;;;;;6.00;1.00;;;;;;;;;;4908136;29;20040;-54
2021/06/18 01:46:32;;;;;;;7.40;0.70;;;;;;;;;;4905363;29;20050;-55
2021/06/18 01:48:59;;;;;;;5.93;0.90;;;;;;;;;;4906419;29;20630;-55
2021/06/18 01:51:28;;;;;;;5.35;0.80;;;;;;;;;;4904757;29;20040;-52
2021/06/18 01:53:56;;;;;;;3.45;0.80;;;;;;;;;;4905967;29;20064;-55
2021/06/18 01:56:23;;;;;;;3.58;0.60;;;;;;;;;;4902734;29;20044;-55
2021/06/18 01:58:51;;;;;;;5.35;0.88;;;;;;;;;;4905235;29;20127;-55
2021/06/18 02:01:17;;;;;;;4.57;0.82;;;;;;;;;;4904985;29;20563;-54
2021/06/18 02:03:44;;;;;;;8.07;1.02;;;;;;;;;;4904586;29;20424;-54
2021/06/18 02:06:11;;;;;;;5.57;1.00;;;;;;;;;;4905642;29;20074;-53
2021/06/18 02:08:37;;;;;;;5.35;1.30;;;;;;;;;;4904885;29;20055;-57
2021/06/18 02:11:04;;;;;;;5.63;1.17;;;;;;;;;;4904696;29;20745;-54
2021/06/18 02:13:31;;;;;;;8.60;1.23;;;;;;;;;;4905250;29;20421;-55
2021/06/18 02:15:58;;;;;;;6.22;1.23;;;;;;;;;;4903983;29;20135;-50
2021/06/18 02:18:25;;;;;;;5.93;1.13;;;;;;;;;;4905508;29;20544;-53
2021/06/18 02:20:53;;;;;;;6.85;1.23;;;;;;;;;;4904694;29;20386;-54
2021/06/18 02:23:20;;;;;;;5.18;1.10;;;;;;;;;;4904883;29;20116;-51
2021/06/18 02:25:46;;;;;;;8.80;1.42;;;;;;;;;;4904879;29;20126;-55
2021/06/18 02:28:13;;;;;;;8.57;0.98;;;;;;;;;;4905759;29;20109;-55
2021/06/18 02:30:39;;;;;;;4.53;0.65;;;;;;;;;;4903391;29;20231;-56
2021/06/18 02:33:12;;;;;;;7.15;1.00;;;;;;;;;;4871872;29;20060;-56
2021/06/18 02:35:41;;;;;;;5.10;0.90;;;;;;;;;;4904224;29;20065;-55
2021/06/18 02:38:11;;;;;;;6.97;1.48;;;;;;;;;;4904965;29;20044;-53
2021/06/18 02:40:37;;;;;;;4.07;1.05;;;;;;;;;;4903373;29;20536;-55
2021/06/18 02:43:03;;;;;;;5.22;1.17;;;;;;;;;;4906105;29;20684;-56
2021/06/18 02:45:29;;;;;;;6.18;1.35;;;;;;;;;;4904060;29;20095;-56
2021/06/18 02:48:05;;;;;;;3.15;1.00;;;;;;;;;;4905654;29;20481;-56
2021/06/18 02:50:43;;;;;;;4.18;1.50;;;;;;;;;;4904726;29;20095;-56
2021/06/18 02:53:14;;;;;;;3.70;1.00;;;;;;;;;;4904501;29;20044;-56
2021/06/18 02:55:45;;;;;;;4.68;1.00;;;;;;;;;;4904248;29;20028;-56
2021/06/18 02:58:13;;;;;;;6.55;1.65;;;;;;;;;;4904540;29;20070;-55
2021/06/18 03:00:41;;;;;;;3.38;0.80;;;;;;;;;;4904651;29;20117;-55
2021/06/18 03:03:07;;;;;;;7.53;1.33;;;;;;;;;;4903493;29;20059;-55
2021/06/18 03:05:33;;;;;;;7.53;1.20;;;;;;;;;;4903406;29;20044;-51
2021/06/18 03:08:04;;;;;;;7.25;0.90;;;;;;;;;;4905565;29;21005;-53
2021/06/18 03:10:40;;;;;;;4.57;0.90;;;;;;;;;;4903636;29;20055;-52
2021/06/18 03:13:08;;;;;;;8.70;1.15;;;;;;;;;;4905126;29;20055;-54
2021/06/18 03:15:37;;;;;;;3.75;0.90;;;;;;;;;;4902855;29;21162;-54
2021/06/18 03:18:03;;;;;;;3.58;0.85;;;;;;;;;;4908436;29;20051;-53
2021/06/18 03:20:28;;;;;;;6.38;0.90;;;;;;;;;;4907851;29;20036;-54
2021/06/18 03:23:01;;;;;;;4.93;1.00;;;;;;;;;;4890384;29;20048;-54
2021/06/18 03:25:29;;;;;;;3.67;0.90;;;;;;;;;;4906798;29;20078;-54
2021/06/18 03:27:55;;;;;;;4.00;0.90;;;;;;;;;;4907677;29;20031;-50
2021/06/18 03:30:21;;;;;;;4.80;1.00;;;;;;;;;;4907652;29;20036;-51
2021/06/18 03:32:51;;;;;;;4.95;1.10;;;;;;;;;;4907256;29;20097;-53
2021/06/18 03:35:19;;;;;;;5.25;0.88;;;;;;;;;;4907278;29;20035;-54
2021/06/18 03:37:45;;;;;;;5.72;0.80;;;;;;;;;;4906796;29;20048;-54
2021/06/18 03:40:11;;;;;;;5.03;1.00;;;;;;;;;;4907703;29;20040;-53
2021/06/18 03:42:38;;;;;;;5.22;1.10;;;;;;;;;;4904704;29;20048;-52
2021/06/18 03:45:04;;;;;;;6.38;0.82;;;;;;;;;;4905092;29;20048;-52
2021/06/18 03:47:31;;;;;;;6.32;1.00;;;;;;;;;;4906974;29;20067;-51
2021/06/18 03:49:57;;;;;;;5.15;1.00;;;;;;;;;;4905226;29;20044;-53
2021/06/18 03:52:23;;;;;;;3.60;0.70;;;;;;;;;;4904614;29;20182;-52
2021/06/18 03:54:49;;;;;;;6.05;0.80;;;;;;;;;;4888131;29;20031;-53
2021/06/18 03:57:17;;;;;;;6.03;0.90;;;;;;;;;;4906162;29;20052;-54
2021/06/18 03:59:43;;;;;;;4.30;0.98;;;;;;;;;;4904749;29;20416;-52
2021/06/18 04:02:10;;;;;;;2.80;0.90;;;;;;;;;;4907316;29;20042;-54
2021/06/18 04:04:37;;;;;;;3.83;1.00;;;;;;;;;;4906082;29;20163;-50
2021/06/18 04:07:05;;;;;;;3.67;0.90;;;;;;;;;;4907161;29;20055;-52
2021/06/18 04:09:31;;;;;;;4.15;0.77;;;;;;;;;;4905081;29;20042;-50
2021/06/18 04:11:58;;;;;;;6.65;1.02;;;;;;;;;;4907175;29;20044;-50
2021/06/18 04:14:25;;;;;;;7.47;0.90;;;;;;;;;;4905808;29;20056;-53
2021/06/18 04:16:51;;;;;;;4.00;1.00;;;;;;;;;;4906773;29;20470;-52
2021/06/18 04:19:17;;;;;;;3.42;0.75;;;;;;;;;;4908157;29;20047;-51
2021/06/18 04:21:46;;;;;;;5.90;1.08;;;;;;;;;;4907718;29;20040;-53
2021/06/18 04:24:13;;;;;;;3.85;0.98;;;;;;;;;;4908383;29;20040;-52
2021/06/18 04:26:39;;;;;;;3.80;1.10;;;;;;;;;;4907065;29;20445;-53
2021/06/18 04:29:05;;;;;;;5.50;1.00;;;;;;;;;;4889632;29;20059;-50
2021/06/18 04:31:31;;;;;;;3.95;1.00;;;;;;;;;;4907697;29;20060;-53
2021/06/18 04:33:57;;;;;;;5.63;1.00;;;;;;;;;;4907973;29;20043;-52
2021/06/18 04:36:23;;;;;;;7.93;0.90;;;;;;;;;;4907954;29;20059;-54
2021/06/18 04:38:48;;;;;;;3.25;0.80;;;;;;;;;;4908294;29;20040;-50
2021/06/18 04:41:14;;;;;;;4.18;0.80;;;;;;;;;;4909422;29;20480;-54
2021/06/18 04:43:40;;;;;;;4.43;0.90;;;;;;;;;;4906972;29;20060;-53
2021/06/18 04:46:06;;;;;;;4.85;0.85;;;;;;;;;;4907801;29;20044;-52
2021/06/18 04:48:32;;;;;;;3.65;0.90;;;;;;;;;;4905980;29;20052;-55
2021/06/18 04:50:58;;;;;;;6.00;0.98;;;;;;;;;;4908426;29;20042;-54
2021/06/18 04:53:24;;;;;;;5.85;1.02;;;;;;;;;;4906147;29;20072;-55
2021/06/18 04:55:50;;;;;;;5.78;1.10;;;;;;;;;;4907273;29;20040;-54
2021/06/18 04:58:16;;;;;;;6.53;1.50;;;;;;;;;;4906675;29;20086;-54
2021/06/18 05:00:41;;;;;;;7.57;0.95;;;;;;;;;;4907724;29;20044;-55
2021/06/18 05:03:07;;;;;;;5.13;1.10;;;;;;;;;;4907183;29;20035;-54
2021/06/18 05:05:33;;;;;;;4.88;0.82;;;;;;;;;;4905517;29;20195;-55
2021/06/18 05:07:59;;;;;;;5.90;0.88;;;;;;;;;;4907161;29;20131;-54
2021/06/18 05:10:26;;;;;;;5.18;0.98;;;;;;;;;;4904966;29;20564;-50
2021/06/18 05:12:52;;;;;;;6.07;1.15;;;;;;;;;;4907157;29;20064;-55
2021/06/18 05:15:18;;;;;;;7.53;1.00;;;;;;;;;;4905017;29;20115;-53
2021/06/18 05:17:44;;;;;;;4.88;1.00;;;;;;;;;;4907110;29;20044;-53
2021/06/18 05:20:12;;;;;;;3.72;1.17;;;;;;;;;;4906321;29;20049;-51
2021/06/18 05:22:38;;;;;;;4.70;1.00;;;;;;;;;;4905785;29;20043;-52
2021/06/18 05:25:03;;;;;;;3.70;0.90;;;;;;;;;;4904352;29;20596;-53
2021/06/18 05:27:29;;;;;;;5.30;0.90;;;;;;;;;;4905782;29;20075;-54
2021/06/18 05:29:55;;;;;;;4.22;0.93;;;;;;;;;;4905984;29;20131;-54
2021/06/18 05:32:21;;;;;;;3.92;1.00;;;;;;;;;;4906236;29;20389;-54
2021/06/18 05:34:47;;;;;;;2.20;0.70;;;;;;;;;;4905052;29;20040;-51
2021/06/18 05:37:13;;;;;;;3.50;0.90;;;;;;;;;;4907451;29;20048;-51
2021/06/18 05:39:40;;;;;;;3.42;1.00;;;;;;;;;;4907029;29;20039;-51
2021/06/18 05:42:06;;;;;;;6.22;1.15;;;;;;;;;;4906593;29;20044;-50
2021/06/18 05:44:32;;;;;;;5.75;1.10;;;;;;;;;;4905206;29;20048;-51
2021/06/18 05:46:58;;;;;;;3.20;0.98;;;;;;;;;;4906693;29;20489;-52
2021/06/18 05:49:24;;;;;;;4.90;1.10;;;;;;;;;;4907486;29;20052;-51
2021/06/18 05:51:49;;;;;;;8.48;1.30;;;;;;;;;;4906091;29;20441;-52
2021/06/18 05:54:15;;;;;;;4.95;1.30;;;;;;;;;;4905558;29;20043;-52
2021/06/18 05:56:41;;;;;;;6.60;1.15;;;;;;;;;;4906640;29;20052;-54
2021/06/18 05:59:07;;;;;;;4.07;1.05;;;;;;;;;;4905359;29;20063;-51
2021/06/18 06:01:33;;;;;;;5.85;0.98;;;;;;;;;;4904161;29;20088;-53
2021/06/18 06:03:59;;;;;;;9.70;1.10;;;;;;;;;;4906459;29;20067;-52
2021/06/18 06:06:25;;;;;;;3.50;1.00;;;;;;;;;;4905570;29;20131;-52
2021/06/18 06:08:53;;;;;;;7.05;0.90;;;;;;;;;;4905539;29;20743;-52
2021/06/18 06:11:19;;;;;;;4.45;0.93;;;;;;;;;;4903938;29;20059;-50
2021/06/18 06:13:45;;;;;;;4.63;0.88;;;;;;;;;;4904602;29;20036;-51
2021/06/18 06:16:11;;;;;;;4.15;1.15;;;;;;;;;;4905505;29;20064;-52
2021/06/18 06:18:37;;;;;;;4.15;0.98;;;;;;;;;;4905296;29;20603;-52
2021/06/18 06:21:03;;;;;;;5.82;1.00;;;;;;;;;;4905058;29;20047;-54
2021/06/18 06:23:30;;;;;;;4.90;1.00;;;;;;;;;;4905648;29;20055;-51
2021/06/18 06:25:56;;;;;;;5.85;1.20;;;;;;;;;;4903751;29;20051;-52
2021/06/18 06:28:21;;;;;;;7.07;1.27;;;;;;;;;;4905425;29;20058;-50
2021/06/18 06:30:47;;;;;;;6.63;1.67;;;;;;;;;;4906305;29;20043;-54
2021/06/18 06:33:13;;;;;;;6.38;1.35;;;;;;;;;;4906008;29;20497;-50
2021/06/18 06:35:39;;;;;;;11.98;1.50;;;;;;;;;;4905277;29;20047;-51
2021/06/18 06:38:05;;;;;;;6.63;1.50;;;;;;;;;;4906048;29;20066;-51
2021/06/18 06:40:31;;;;;;;6.10;1.70;;;;;;;;;;4905302;29;20048;-54
2021/06/18 06:42:57;;;;;;;10.00;1.60;;;;;;;;;;4905062;29;20518;-53
2021/06/18 06:45:23;;;;;;;9.10;1.50;;;;;;;;;;4905352;29;21001;-54
2021/06/18 06:47:52;;;;;;;7.30;1.33;;;;;;;;;;4904949;29;20040;-53
2021/06/18 06:50:18;;;;;;;13.55;1.50;;;;;;;;;;4908799;29;20044;-53
2021/06/18 06:52:44;;;;;;;8.63;2.08;;;;;;;;;;4909288;29;20091;-50
2021/06/18 06:55:11;;;;;;;13.25;2.33;;;;;;;;;;4909271;29;20036;-54
2021/06/18 06:57:36;;;;;;;22.13;2.90;;;;;;;;;;4890808;29;20126;-51
2021/06/18 07:00:03;;;;;;;19.60;2.28;;;;;;;;;;4909240;29;20055;-51
2021/06/18 07:02:29;;;;;;;15.57;2.08;;;;;;;;;;4910176;29;20099;-51
2021/06/18 07:04:55;;;;;;;7.20;1.85;;;;;;;;;;4909104;29;20047;-51
2021/06/18 07:07:21;;;;;;;9.95;1.90;;;;;;;;;;4907824;29;20607;-51
2021/06/18 07:09:47;;;;;;;7.70;1.67;;;;;;;;;;4910119;29;20542;-51
2021/06/18 07:12:12;;;;;;;9.07;2.00;;;;;;;;;;4909408;29;20082;-53
2021/06/18 07:14:41;;;;;;;9.57;1.92;;;;;;;;;;4908652;29;20065;-52
2021/06/18 07:17:07;;;;;;;16.80;2.25;;;;;;;;;;4909253;29;23111;-53
2021/06/18 07:19:33;;;;;;;10.88;2.08;;;;;;;;;;4907037;29;20040;-51
2021/06/18 07:22:00;;;;;;;10.15;2.20;;;;;;;;;;4909429;29;20524;-53
2021/06/18 07:24:26;;;;;;;13.43;2.25;;;;;;;;;;4907566;29;20040;-50
2021/06/18 07:26:51;;;;;;;14.82;2.05;;;;;;;;;;4909019;29;20423;-53
2021/06/18 07:29:17;;;;;;;11.52;2.83;;;;;;;;;;4908948;29;20044;-54
2021/06/18 07:31:43;;;;;;;8.98;1.88;;;;;;;;;;4908321;29;20063;-54
2021/06/18 07:34:09;;;;;;;10.50;2.03;;;;;;;;;;4906964;29;20047;-51
2021/06/18 07:36:35;;;;;;;13.07;2.65;;;;;;;;;;4908195;29;20574;-51
2021/06/18 07:39:01;;;;;;;8.30;2.08;;;;;;;;;;4909148;29;20039;-50
2021/06/18 07:41:27;;;;;;;7.35;1.90;;;;;;;;;;4907629;29;20071;-53
2021/06/18 07:43:52;;;;;;;13.30;1.85;;;;;;;;;;4908007;29;20156;-53
2021/06/18 07:46:20;;;;;;;6.95;1.83;;;;;;;;;;4907671;29;20506;-53
2021/06/18 07:48:46;;;;;;;10.23;1.70;;;;;;;;;;4908743;29;20617;-50
2021/06/18 07:51:12;;;;;;;7.55;1.70;;;;;;;;;;4906769;29;20132;-50
2021/06/18 07:53:38;;;;;;;11.25;2.20;;;;;;;;;;4907157;29;20048;-52
2021/06/18 07:56:04;;;;;;;7.70;2.10;;;;;;;;;;4908820;29;20055;-52
2021/06/18 07:58:30;;;;;;;10.60;2.03;;;;;;;;;;4906797;29;20044;-52
2021/06/18 08:00:56;;;;;;;7.60;1.70;;;;;;;;;;4906993;29;20047;-50
2021/06/18 08:03:22;;;;;;;7.15;1.58;;;;;;;;;;4907137;29;20836;-52
2021/06/18 08:05:48;;;;;;;4.82;1.70;;;;;;;;;;4907502;29;20040;-52
2021/06/18 08:08:13;;;;;;;9.02;1.77;;;;;;;;;;4890466;29;20063;-51
2021/06/18 08:10:39;;;;;;;5.25;1.80;;;;;;;;;;4906175;29;20052;-52
2021/06/18 08:13:05;;;;;;;6.15;1.75;;;;;;;;;;4907417;29;20048;-52
2021/06/18 08:15:31;;;;;;;3.70;1.55;;;;;;;;;;4905585;29;20103;-52
2021/06/18 08:17:58;;;;;;;4.63;1.73;;;;;;;;;;4908548;29;20098;-54
2021/06/18 08:20:25;;;;;;;8.82;1.70;;;;;;;;;;4906496;29;20071;-54
2021/06/18 08:22:53;;;;;;;6.45;1.90;;;;;;;;;;4907747;29;20055;-54
2021/06/18 08:25:19;;;;;;;6.07;1.85;;;;;;;;;;4906488;29;20044;-53
2021/06/18 08:27:46;;;;;;;9.43;1.90;;;;;;;;;;4908127;29;20087;-54
2021/06/18 08:30:12;;;;;;;11.25;1.80;;;;;;;;;;4906711;29;20044;-55
2021/06/18 08:32:37;;;;;;;6.05;1.67;;;;;;;;;;4905362;29;22581;-51
2021/06/18 08:35:04;;;;;;;4.32;1.60;;;;;;;;;;4907926;29;20764;-53
2021/06/18 08:37:29;;;;;;;6.10;2.03;;;;;;;;;;4905979;29;20051;-52
2021/06/18 08:39:55;;;;;;;4.45;1.75;;;;;;;;;;4907608;29;20040;-51
2021/06/18 08:42:21;;;;;;;5.63;1.67;;;;;;;;;;4906396;29;20078;-50
2021/06/18 08:44:47;;;;;;;7.43;2.05;;;;;;;;;;4907152;29;20068;-53
2021/06/18 08:47:13;;;;;;;6.97;2.20;;;;;;;;;;4907156;29;20048;-51
2021/06/18 08:49:39;;;;;;;5.88;1.92;;;;;;;;;;4906309;29;20079;-52
2021/06/18 08:52:05;;;;;;;7.32;2.10;;;;;;;;;;4908820;29;20135;-53
2021/06/18 08:54:44;;;;;;;5.38;1.90;;;;;;;;;;4906230;29;20047;-55
2021/06/18 08:57:10;;;;;;;4.80;1.50;;;;;;;;;;4908651;29;20143;-54
2021/06/18 08:59:36;;;;;;;10.60;2.10;;;;;;;;;;4906569;29;20048;-54
2021/06/18 09:02:02;;;;;;;9.00;1.95;;;;;;;;;;4906970;29;20047;-55
2021/06/18 09:04:28;;;;;;;10.38;1.98;;;;;;;;;;4906943;29;20136;-52
2021/06/18 09:06:57;;;;;;;7.32;2.00;;;;;;;;;;4908298;29;20099;-53
2021/06/18 09:09:34;;;;;;;8.27;1.70;;;;;;;;;;4907566;29;20039;-55
2021/06/18 09:12:01;;;;;;;5.57;1.80;;;;;;;;;;4906686;29;20413;-53
2021/06/18 09:14:36;;;;;;;6.40;1.70;;;;;;;;;;4888655;29;20075;-52
2021/06/18 09:17:06;;;;;;;7.75;2.08;;;;;;;;;;4905925;29;20044;-52
2021/06/18 09:19:33;;;;;;;8.77;2.53;;;;;;;;;;4906728;29;20420;-53
2021/06/18 09:22:03;;;;;;;7.75;1.88;;;;;;;;;;4904154;29;20241;-50
2021/06/18 09:24:30;;;;;;;7.38;2.25;;;;;;;;;;4905922;29;20057;-50
2021/06/18 09:26:58;;;;;;;10.23;2.25;;;;;;;;;;4890409;29;20667;-52
2021/06/18 09:29:24;;;;;;;10.02;2.30;;;;;;;;;;4906152;29;20048;-52
2021/06/18 09:31:52;;;;;;;13.88;2.72;;;;;;;;;;4906415;29;22020;-51
2021/06/18 09:37:17;;;;;;;14.70;2.28;;;;;;;;;;4905949;29;20127;-53
2021/06/18 09:40:14;;;;;;;14.82;2.10;;;;;;;;;;4907404;29;20468;-51
2021/06/18 09:42:40;;;;;;;12.70;2.13;;;;;;;;;;4874589;29;20079;-51
2021/06/18 09:45:11;;;;;;;11.23;2.20;;;;;;;;;;4907686;29;20051;-52
2021/06/18 09:47:37;;;;;;;16.13;2.20;;;;;;;;;;4890280;29;20078;-51
2021/06/18 09:50:04;;;;;;;8.70;2.25;;;;;;;;;;4908291;29;20202;-52
2021/06/18 09:52:30;;;;;;;13.88;2.50;;;;;;;;;;4891248;29;20510;-52
2021/06/18 09:54:56;;;;;;;31.23;14.90;;;;;;;;;;4907130;29;20187;-54
2021/06/18 09:57:23;;;;;;;18.17;5.30;;;;;;;;;;4907579;29;20409;-51
2021/06/18 09:59:49;;;;;;;20.08;5.32;;;;;;;;;;4905827;29;20194;-50
2021/06/18 10:02:15;;;;;;;23.08;3.42;;;;;;;;;;4906898;29;20588;-51
2021/06/18 10:04:42;;;;;;;9.68;2.47;;;;;;;;;;4905032;29;20067;-53
2021/06/18 10:07:09;;;;;;;8.50;2.55;;;;;;;;;;4905927;29;20169;-49
2021/06/18 10:09:35;;;;;;;18.30;2.60;;;;;;;;;;4904826;29;20100;-51
2021/06/18 10:12:01;;;;;;;21.35;2.70;;;;;;;;;;4905572;29;20106;-53
2021/06/18 10:14:26;;;;;;;27.85;3.10;;;;;;;;;;4904178;29;20422;-51
2021/06/18 10:16:53;;;;;;;11.02;2.70;;;;;;;;;;4906788;29;20059;-53
2021/06/18 10:19:20;;;;;;;23.27;3.70;;;;;;;;;;4905037;29;20988;-53
2021/06/18 10:21:53;;;;;;;20.92;3.03;;;;;;;;;;4905745;29;20034;-53
2021/06/18 10:24:23;;;;;;;18.48;2.40;;;;;;;;;;4903207;29;20745;-53
2021/06/18 10:26:50;;;;;;;12.45;2.30;;;;;;;;;;4905883;29;20040;-54
2021/06/18 10:29:37;;;;;;;11.38;2.60;;;;;;;;;;4904344;29;20139;-53
2021/06/18 10:32:22;;;;;;;11.85;2.20;;;;;;;;;;4904739;29;20055;-53
2021/06/18 10:34:47;;;;;;;10.25;2.28;;;;;;;;;;4904675;29;20446;-50
2021/06/18 10:37:21;;;;;;;8.43;2.08;;;;;;;;;;4907248;29;20115;-49
2021/06/18 10:39:51;;;;;;;8.70;2.15;;;;;;;;;;4903847;29;20055;-50
2021/06/18 10:42:17;;;;;;;7.88;2.10;;;;;;;;;;4904094;29;20080;-52
2021/06/18 10:44:47;;;;;;;9.77;2.08;;;;;;;;;;4905547;29;20043;-53
2021/06/18 10:47:22;;;;;;;7.97;1.92;;;;;;;;;;4905003;29;20047;-53
2021/06/18 10:49:48;;;;;;;8.32;2.15;;;;;;;;;;4904112;29;20108;-50
2021/06/18 10:52:17;;;;;;;7.53;1.77;;;;;;;;;;4901736;29;20055;-53
2021/06/18 10:54:46;;;;;;;8.63;2.00;;;;;;;;;;4904531;29;20450;-53
2021/06/18 10:57:14;;;;;;;11.27;2.25;;;;;;;;;;4905473;29;20794;-53
2021/06/18 10:59:46;;;;;;;15.35;2.05;;;;;;;;;;4905909;29;20036;-51
2021/06/18 11:02:21;;;;;;;10.65;2.50;;;;;;;;;;4876539;29;20103;-53
2021/06/18 11:04:51;;;;;;;14.35;2.45;;;;;;;;;;4904418;29;20477;-53
2021/06/18 11:07:21;;;;;;;9.73;2.38;;;;;;;;;;4905489;29;20557;-50
2021/06/18 11:09:48;;;;;;;10.18;2.60;;;;;;;;;;4904722;29;20064;-51
2021/06/18 11:12:26;;;;;;;8.55;2.45;;;;;;;;;;4905713;29;20052;-52
2021/06/18 11:14:56;;;;;;;10.65;2.42;;;;;;;;;;4904521;29;20056;-51
2021/06/18 11:17:37;;;;;;;10.18;2.13;;;;;;;;;;4908163;29;20088;-53
2021/06/18 11:20:04;;;;;;;11.95;2.42;;;;;;;;;;4906826;29;20040;-52
2021/06/18 11:22:34;;;;;;;12.63;2.20;;;;;;;;;;4905802;29;20150;-52
2021/06/18 11:25:00;;;;;;;11.13;2.15;;;;;;;;;;4890063;29;20051;-52
2021/06/18 11:27:27;;;;;;;7.95;1.98;;;;;;;;;;4906230;29;20036;-51
2021/06/18 11:30:12;;;;;;;11.77;2.50;;;;;;;;;;4890508;29;20044;-51
2021/06/18 11:32:44;;;;;;;14.85;2.70;;;;;;;;;;4903479;29;20064;-51
2021/06/18 11:35:29;;;;;;;14.85;2.70;;;;;;;;;;4905952;29;20044;-53
2021/06/18 11:37:55;;;;;;;21.35;3.20;;;;;;;;;;4908620;29;20047;-51
2021/06/18 11:40:23;;;;;;;29.58;3.95;;;;;;;;;;4908301;29;20048;-52
2021/06/18 11:42:49;;;;;;;34.47;3.70;;;;;;;;;;4908889;29;20045;-51
2021/06/18 11:45:16;;;;;;;24.10;2.90;;;;;;;;;;4909991;29;20060;-53
2021/06/18 11:47:42;;;;;;;27.65;3.83;;;;;;;;;;4906477;29;20040;-51
2021/06/18 11:50:08;;;;;;;27.10;3.45;;;;;;;;;;4909355;29;20505;-52
2021/06/18 11:52:34;;;;;;;27.33;3.65;;;;;;;;;;4908924;29;20078;-52
2021/06/18 11:55:00;;;;;;;20.70;3.65;;;;;;;;;;4909670;29;20116;-51
2021/06/18 11:57:26;;;;;;;18.90;3.90;;;;;;;;;;4908885;29;20138;-52
2021/06/18 11:59:53;;;;;;;15.77;3.45;;;;;;;;;;4908518;29;20054;-51
2021/06/18 12:02:20;;;;;;;17.85;2.45;;;;;;;;;;4908004;29;20044;-52
2021/06/18 12:04:47;;;;;;;11.65;2.60;;;;;;;;;;4908561;29;20111;-52
2021/06/18 12:07:12;;;;;;;18.83;2.95;;;;;;;;;;4908599;29;20123;-52
2021/06/18 12:09:39;;;;;;;14.40;2.78;;;;;;;;;;4907445;29;20058;-54
2021/06/18 12:12:06;;;;;;;21.63;3.10;;;;;;;;;;4887476;29;20414;-54
2021/06/18 12:14:36;;;;;;;21.50;3.13;;;;;;;;;;4907378;29;20071;-53
2021/06/18 12:17:03;;;;;;;21.10;3.38;;;;;;;;;;4905810;29;20044;-55
2021/06/18 12:19:30;;;;;;;16.40;2.30;;;;;;;;;;4907447;29;20066;-53
2021/06/18 12:21:56;;;;;;;14.13;2.83;;;;;;;;;;4905875;29;20551;-54
2021/06/18 12:24:25;;;;;;;13.15;2.30;;;;;;;;;;4907826;29;20371;-51
2021/06/18 12:26:51;;;;;;;12.15;2.35;;;;;;;;;;4908078;29;20506;-54
2021/06/18 12:29:17;;;;;;;7.63;2.35;;;;;;;;;;4907848;29;20054;-55
2021/06/18 12:31:42;;;;;;;11.50;2.90;;;;;;;;;;4905947;29;20192;-54
2021/06/18 12:34:08;;;;;;;17.35;2.88;;;;;;;;;;4907526;29;20088;-54
2021/06/18 12:36:34;;;;;;;18.45;2.70;;;;;;;;;;4906756;29;20067;-56
2021/06/18 12:39:09;;;;;;;14.88;2.72;;;;;;;;;;4906600;29;20098;-54
2021/06/18 12:41:34;;;;;;;9.13;2.20;;;;;;;;;;4907046;29;20036;-55
2021/06/18 12:44:05;;;;;;;10.07;2.53;;;;;;;;;;4903019;29;21394;-53
2021/06/18 12:46:30;;;;;;;15.18;2.03;;;;;;;;;;4905655;29;20043;-55
2021/06/18 12:49:10;;;;;;;10.52;2.25;;;;;;;;;;4906227;29;20378;-54
2021/06/18 12:51:36;;;;;;;10.60;2.10;;;;;;;;;;4906124;29;20039;-52
2021/06/18 12:54:04;;;;;;;9.60;2.25;;;;;;;;;;4878824;29;20079;-52
2021/06/18 12:56:37;;;;;;;9.35;2.00;;;;;;;;;;4905713;29;20121;-54
2021/06/18 12:59:09;;;;;;;5.97;2.28;;;;;;;;;;4906885;29;20588;-54
2021/06/18 13:01:37;;;;;;;10.45;1.83;;;;;;;;;;4905064;29;20048;-55
2021/06/18 13:04:04;;;;;;;10.65;2.08;;;;;;;;;;4907925;29;20032;-55
2021/06/18 13:06:51;;;;;;;9.20;2.30;;;;;;;;;;4906498;29;20058;-52
2021/06/18 13:09:31;;;;;;;8.30;1.48;;;;;;;;;;4908528;29;20050;-52
2021/06/18 13:11:56;;;;;;;8.15;1.75;;;;;;;;;;4905037;29;20048;-52
2021/06/18 13:14:24;;;;;;;10.15;1.90;;;;;;;;;;4906822;29;20051;-55
2021/06/18 13:16:51;;;;;;;7.43;1.77;;;;;;;;;;4907961;29;22106;-55
2021/06/18 13:19:18;;;;;;;9.40;1.70;;;;;;;;;;4906621;29;20127;-55
2021/06/18 13:21:46;;;;;;;5.28;1.30;;;;;;;;;;4906073;29;20580;-52
2021/06/18 13:24:13;;;;;;;7.32;1.60;;;;;;;;;;4904001;29;20087;-51
2021/06/18 13:26:39;;;;;;;7.53;1.40;;;;;;;;;;4904972;29;20212;-54
2021/06/18 13:29:15;;;;;;;5.32;1.63;;;;;;;;;;4905542;29;20043;-53
2021/06/18 13:31:42;;;;;;;9.10;1.80;;;;;;;;;;4905280;29;20051;-55
2021/06/18 13:34:09;;;;;;;6.72;1.50;;;;;;;;;;4905601;29;20044;-56
2021/06/18 13:36:36;;;;;;;11.27;1.67;;;;;;;;;;4905657;29;20591;-53
2021/06/18 13:39:25;;;;;;;5.50;1.42;;;;;;;;;;4907446;29;20122;-55
2021/06/18 13:41:51;;;;;;;6.18;1.50;;;;;;;;;;4889992;29;20040;-55
2021/06/18 13:44:17;;;;;;;6.15;1.40;;;;;;;;;;4907733;29;20040;-53
2021/06/18 13:46:43;;;;;;;6.15;1.08;;;;;;;;;;4908136;29;20047;-52
2021/06/18 13:49:10;;;;;;;5.03;1.30;;;;;;;;;;4906744;29;20044;-55
2021/06/18 13:51:36;;;;;;;5.40;1.20;;;;;;;;;;4902652;29;20047;-51
2021/06/18 13:54:02;;;;;;;9.57;1.30;;;;;;;;;;4906093;29;20056;-53
2021/06/18 13:56:29;;;;;;;10.63;1.52;;;;;;;;;;4904017;29;20067;-54
2021/06/18 13:58:55;;;;;;;5.95;1.20;;;;;;;;;;4906031;29;20077;-53
2021/06/18 14:01:22;;;;;;;4.72;1.20;;;;;;;;;;4905355;29;20047;-53
2021/06/18 14:03:48;;;;;;;9.65;1.58;;;;;;;;;;4906570;29;20458;-53
2021/06/18 14:06:14;;;;;;;5.82;1.20;;;;;;;;;;4906874;29;20040;-53
2021/06/18 14:08:40;;;;;;;8.90;1.30;;;;;;;;;;4906707;29;20040;-54
2021/06/18 14:11:10;;;;;;;5.53;0.85;;;;;;;;;;4904200;29;20040;-50
2021/06/18 14:13:36;;;;;;;4.43;1.10;;;;;;;;;;4904742;29;20056;-54
2021/06/18 14:16:02;;;;;;;6.75;0.90;;;;;;;;;;4906696;29;20054;-53
2021/06/18 14:18:28;;;;;;;7.68;1.40;;;;;;;;;;4905092;29;20072;-52
2021/06/18 14:20:54;;;;;;;8.57;1.05;;;;;;;;;;4905708;29;20040;-54
2021/06/18 14:23:20;;;;;;;4.80;1.13;;;;;;;;;;4905120;29;20051;-54
2021/06/18 14:25:49;;;;;;;7.82;1.08;;;;;;;;;;4905587;29;20063;-54
2021/06/18 14:28:15;;;;;;;4.53;0.90;;;;;;;;;;4908572;29;20044;-55
2021/06/18 14:30:42;;;;;;;7.63;1.35;;;;;;;;;;4904600;29;20057;-54
2021/06/18 14:33:11;;;;;;;9.02;1.45;;;;;;;;;;4908783;29;20146;-53
2021/06/18 14:35:39;;;;;;;11.70;1.58;;;;;;;;;;4905217;29;20041;-51
2021/06/18 14:38:04;;;;;;;3.67;1.27;;;;;;;;;;4907121;29;20654;-52
2021/06/18 14:40:30;;;;;;;8.35;1.35;;;;;;;;;;4906206;29;20044;-54
2021/06/18 14:42:56;;;;;;;3.88;1.10;;;;;;;;;;4907066;29;20040;-54
2021/06/18 14:45:22;;;;;;;6.18;1.50;;;;;;;;;;4906730;29;20046;-54